Time;durP1;ratioP1;P1;durP2;ratioP2;P2;SDS_P1;SDS_P2;PMS_P1;PMS_P2;Temp;Humidity;BMP_temperature;BMP_pressure;BME280_temperature;BME280_humidity;BME280_pressure;Samples;Min_cycle;Max_cycle;Signal;HPM_P1;HPM_P2
2023/02/28 00:00:36;;;;;;;274.93;71.53;;;0.10;99.90;;;;;;5112763;28;20730;-75
2023/02/28 00:03:03;;;;;;;318.80;83.40;;;0.20;99.90;;;;;;5114858;28;20198;-77
2023/02/28 00:05:31;;;;;;;521.67;164.27;;;0.10;99.90;;;;;;5113961;28;20725;-75
2023/02/28 00:07:58;;;;;;;54.43;22.63;;;0.30;99.90;;;;;;5114225;28;20213;-77
2023/02/28 00:10:29;;;;;;;181.30;72.83;;;0.30;99.90;;;;;;5113779;28;20730;-77
2023/02/28 00:13:00;;;;;;;24.87;12.97;;;0.20;99.90;;;;;;5114530;28;20201;-77
2023/02/28 00:15:27;;;;;;;28.20;18.13;;;0.20;99.90;;;;;;5113650;28;20281;-77
2023/02/28 00:17:55;;;;;;;34.60;23.00;;;0.10;99.90;;;;;;5113812;28;20243;-77
2023/02/28 00:20:22;;;;;;;31.33;26.00;;;0.20;99.90;;;;;;5114096;28;20278;-75
2023/02/28 00:22:52;;;;;;;13.80;9.80;;;0.30;99.90;;;;;;5113929;28;20225;-77
2023/02/28 00:25:21;;;;;;;9.87;7.80;;;0.20;99.90;;;;;;5114196;28;20221;-78
2023/02/28 00:27:49;;;;;;;11.30;8.27;;;0.40;99.90;;;;;;5113974;28;20639;-74
2023/02/28 00:30:18;;;;;;;9.07;7.00;;;0.30;99.90;;;;;;5113420;28;20247;-75
2023/02/28 00:32:45;;;;;;;9.87;6.73;;;0.40;99.90;;;;;;5113981;28;20263;-75
2023/02/28 00:35:13;;;;;;;7.60;5.37;;;0.20;99.90;;;;;;5113893;28;20194;-77
2023/02/28 00:37:40;;;;;;;9.93;4.90;;;0.30;99.90;;;;;;5113707;28;20263;-77
2023/02/28 00:40:09;;;;;;;9.57;5.17;;;0.30;99.90;;;;;;5113944;28;20197;-76
2023/02/28 00:42:36;;;;;;;9.03;5.20;;;0.50;99.90;;;;;;5113583;28;20202;-77
2023/02/28 00:45:05;;;;;;;10.40;5.90;;;0.40;99.90;;;;;;5113612;28;20727;-75
2023/02/28 00:47:33;;;;;;;12.63;7.13;;;0.30;99.90;;;;;;5113560;28;20228;-74
2023/02/28 00:50:00;;;;;;;11.53;6.30;;;0.40;99.90;;;;;;5113752;28;20237;-75
2023/02/28 00:52:27;;;;;;;9.80;6.20;;;0.20;99.90;;;;;;5113430;28;20205;-77
2023/02/28 00:54:54;;;;;;;7.67;5.17;;;0.10;99.90;;;;;;5113322;28;20288;-77
2023/02/28 00:57:21;;;;;;;7.83;5.67;;;0.00;99.90;;;;;;5112691;28;20625;-75
2023/02/28 00:59:47;;;;;;;9.17;5.10;;;0.10;99.90;;;;;;5113556;28;20235;-77
2023/02/28 01:02:16;;;;;;;8.47;4.77;;;0.10;99.90;;;;;;5112570;28;20193;-77
2023/02/28 01:04:43;;;;;;;8.27;5.60;;;0.10;99.90;;;;;;5112802;28;20300;-77
2023/02/28 01:07:10;;;;;;;7.73;4.93;;;0.20;99.90;;;;;;5112691;28;20654;-77
2023/02/28 01:09:37;;;;;;;7.97;5.10;;;0.20;99.90;;;;;;5112849;28;20193;-76
2023/02/28 01:12:04;;;;;;;8.80;5.77;;;0.20;99.90;;;;;;5112781;28;20239;-76
2023/02/28 01:14:31;;;;;;;7.30;5.30;;;0.20;99.90;;;;;;5113449;28;20243;-76
2023/02/28 01:16:58;;;;;;;9.83;6.13;;;0.10;99.90;;;;;;5112335;28;20732;-77
2023/02/28 01:19:26;;;;;;;9.87;7.10;;;0.20;99.90;;;;;;5112458;28;20224;-76
2023/02/28 01:21:53;;;;;;;9.80;6.27;;;0.10;99.90;;;;;;5112800;28;20284;-77
2023/02/28 01:24:20;;;;;;;8.67;5.90;;;-0.10;99.90;;;;;;5112672;28;20293;-76
2023/02/28 01:26:47;;;;;;;9.67;5.70;;;-0.10;99.90;;;;;;5112356;28;20292;-77
2023/02/28 01:29:14;;;;;;;10.13;5.63;;;-0.20;99.90;;;;;;5112808;28;20644;-77
2023/02/28 01:31:41;;;;;;;9.90;6.30;;;-0.20;99.90;;;;;;5112830;28;20213;-77
2023/02/28 01:34:08;;;;;;;9.87;6.00;;;-0.30;99.90;;;;;;5112614;28;20293;-78
2023/02/28 01:36:36;;;;;;;8.63;5.97;;;-0.30;99.90;;;;;;5112527;28;20288;-77
2023/02/28 01:39:03;;;;;;;12.13;6.80;;;-0.30;99.90;;;;;;5112665;28;20203;-77
2023/02/28 01:41:32;;;;;;;13.07;7.23;;;-0.50;99.90;;;;;;5111767;28;20278;-77
2023/02/28 01:44:04;;;;;;;15.23;7.27;;;-0.60;99.90;;;;;;5112334;28;20295;-77
2023/02/28 01:46:31;;;;;;;10.50;6.67;;;-0.60;99.90;;;;;;5112437;28;20239;-77
2023/02/28 01:49:05;;;;;;;10.57;7.00;;;-0.70;99.90;;;;;;5112191;28;20679;-77
2023/02/28 01:51:38;;;;;;;8.13;5.93;;;-0.80;99.90;;;;;;5112046;28;20727;-78
2023/02/28 01:54:13;;;;;;;8.63;6.27;;;-1.00;99.90;;;;;;5112396;28;20295;-77
2023/02/28 01:56:44;;;;;;;8.83;6.57;;;-1.00;99.90;;;;;;5112399;28;20195;-77
2023/02/28 01:59:15;;;;;;;8.90;6.30;;;-1.10;99.90;;;;;;5112070;28;20765;-76
2023/02/28 02:01:43;;;;;;;10.87;6.37;;;-0.90;99.90;;;;;;5112344;28;20230;-77
2023/02/28 02:04:10;;;;;;;9.37;6.47;;;-1.00;99.90;;;;;;5112132;28;20629;-77
2023/02/28 02:06:43;;;;;;;9.10;6.60;;;-0.80;99.90;;;;;;5112061;28;20676;-77
2023/02/28 02:09:10;;;;;;;8.50;6.37;;;-1.10;99.90;;;;;;5112169;28;20277;-74
2023/02/28 02:11:37;;;;;;;12.67;7.03;;;-1.10;99.90;;;;;;5111643;28;20199;-76
2023/02/28 02:14:22;;;;;;;10.70;6.60;;;-1.00;99.90;;;;;;5111625;28;20200;-75
2023/02/28 02:17:04;;;;;;;10.63;6.50;;;-1.00;99.90;;;;;;5111525;28;20298;-74
2023/02/28 02:20:06;;;;;;;12.47;6.87;;;-1.00;99.90;;;;;;5111541;27;20199;-77
2023/02/28 02:23:09;;;;;;;10.87;6.50;;;-1.00;99.90;;;;;;5111896;28;20234;-73
2023/02/28 02:25:42;;;;;;;10.43;6.73;;;-1.20;99.90;;;;;;5088427;28;20734;-77
2023/02/28 02:28:34;;;;;;;11.43;7.17;;;-1.10;99.90;;;;;;5089187;28;20291;-78
2023/02/28 02:31:28;;;;;;;10.90;6.90;;;-0.90;99.90;;;;;;5089143;28;20227;-79
2023/02/28 02:34:34;;;;;;;9.87;7.07;;;-0.90;99.90;;;;;;5089065;28;20199;-76
2023/02/28 02:37:12;;;;;;;11.30;6.93;;;-1.10;99.90;;;;;;5088615;28;20230;-76
2023/02/28 02:39:48;;;;;;;11.13;7.23;;;-1.30;99.90;;;;;;5088933;28;20204;-76
2023/02/28 02:42:18;;;;;;;11.20;7.33;;;-1.10;99.90;;;;;;5089228;28;20661;-76
2023/02/28 02:44:50;;;;;;;9.53;7.23;;;-1.30;99.90;;;;;;5088348;28;20742;-76
2023/02/28 02:47:20;;;;;;;11.13;7.87;;;-1.30;99.90;;;;;;5088809;28;20316;-76
2023/02/28 02:49:53;;;;;;;12.97;7.33;;;-1.20;99.90;;;;;;5088294;28;20715;-75
2023/02/28 02:52:24;;;;;;;12.73;7.60;;;-0.90;99.90;;;;;;5083785;28;20399;-74
2023/02/28 02:54:55;;;;;;;10.40;7.67;;;-1.00;99.90;;;;;;5074988;28;20229;-77
2023/02/28 02:57:26;;;;;;;11.93;7.80;;;-1.10;99.90;;;;;;5071009;28;20225;-77
2023/02/28 02:59:55;;;;;;;14.10;8.17;;;-1.10;99.90;;;;;;5088348;28;20389;-76
2023/02/28 03:02:23;;;;;;;10.43;7.53;;;-1.10;99.90;;;;;;5099583;28;20289;-78
2023/02/28 03:04:53;;;;;;;11.87;7.63;;;-1.00;99.90;;;;;;5111395;28;20308;-77
2023/02/28 03:07:20;;;;;;;12.13;7.97;;;-1.00;99.90;;;;;;5111242;28;20265;-76
2023/02/28 03:09:54;;;;;;;12.10;7.67;;;-1.00;99.90;;;;;;5111522;28;20289;-78
2023/02/28 03:12:24;;;;;;;12.73;8.17;;;-1.00;99.90;;;;;;5111302;28;20233;-78
2023/02/28 03:15:00;;;;;;;11.73;7.93;;;-1.10;99.90;;;;;;5111352;28;20193;-77
2023/02/28 03:17:56;;;;;;;12.17;8.20;;;-1.10;99.90;;;;;;5111201;28;20292;-77
2023/02/28 03:20:36;;;;;;;12.63;8.07;;;-1.10;99.90;;;;;;5111254;28;20196;-77
2023/02/28 03:23:14;;;;;;;13.07;8.30;;;-0.90;99.90;;;;;;5110259;28;20204;-77
2023/02/28 03:25:53;;;;;;;12.70;8.63;;;-1.00;99.90;;;;;;5110775;28;20715;-77
2023/02/28 03:28:29;;;;;;;12.13;8.20;;;-1.10;99.90;;;;;;5111515;28;20201;-77
2023/02/28 03:31:01;;;;;;;10.97;7.77;;;-1.00;99.90;;;;;;5111603;28;20286;-76
2023/02/28 03:33:31;;;;;;;13.63;8.97;;;-1.10;99.90;;;;;;5115499;28;20282;-76
2023/02/28 03:36:02;;;;;;;14.13;8.90;;;-1.10;99.90;;;;;;5115098;28;20235;-76
2023/02/28 03:38:34;;;;;;;14.30;8.90;;;-1.00;99.90;;;;;;5114678;28;20233;-76
2023/02/28 03:41:06;;;;;;;13.70;9.00;;;-1.20;99.90;;;;;;5115275;28;20644;-75
2023/02/28 03:43:37;;;;;;;13.83;9.07;;;-1.20;99.90;;;;;;5115244;28;20655;-76
2023/02/28 03:46:09;;;;;;;14.13;9.13;;;-1.00;99.90;;;;;;5114359;28;20232;-77
2023/02/28 03:48:41;;;;;;;15.93;9.33;;;-1.10;99.90;;;;;;5114532;28;20195;-76
2023/02/28 03:51:14;;;;;;;14.53;9.50;;;-1.20;99.90;;;;;;5114229;28;20249;-76
2023/02/28 03:53:45;;;;;;;15.20;9.60;;;-1.20;99.90;;;;;;5114784;28;20229;-77
2023/02/28 03:56:17;;;;;;;15.23;9.97;;;-1.20;99.90;;;;;;5114760;28;20223;-76
2023/02/28 03:58:52;;;;;;;14.63;9.57;;;-1.30;99.90;;;;;;5114861;28;20281;-77
2023/02/28 04:01:24;;;;;;;13.63;9.20;;;-1.30;99.90;;;;;;5113544;28;20281;-76
2023/02/28 04:03:51;;;;;;;14.60;9.43;;;-1.30;99.90;;;;;;5114768;28;20288;-77
2023/02/28 04:06:21;;;;;;;14.67;9.43;;;-1.30;99.90;;;;;;5113465;28;20316;-78
2023/02/28 04:08:49;;;;;;;16.67;9.57;;;-1.40;99.90;;;;;;5114930;28;20281;-77
2023/02/28 04:11:21;;;;;;;14.93;9.67;;;-1.40;99.90;;;;;;5114432;28;20219;-78
2023/02/28 04:13:49;;;;;;;15.40;10.07;;;-1.30;99.90;;;;;;5114475;28;20200;-78
2023/02/28 04:16:16;;;;;;;16.37;10.10;;;-1.50;99.90;;;;;;5114291;28;20625;-76
2023/02/28 04:18:43;;;;;;;14.07;9.57;;;-1.40;99.90;;;;;;5113696;28;20298;-77
2023/02/28 04:21:11;;;;;;;14.17;9.47;;;-1.50;99.90;;;;;;5113426;28;20225;-77
2023/02/28 04:23:39;;;;;;;14.90;9.47;;;-1.40;99.90;;;;;;5114287;28;20726;-76
2023/02/28 04:26:06;;;;;;;15.37;10.17;;;-1.40;99.90;;;;;;5113461;28;20672;-76
2023/02/28 04:28:33;;;;;;;15.50;10.00;;;-1.50;99.90;;;;;;5113889;28;20212;-76
2023/02/28 04:31:03;;;;;;;15.00;10.17;;;-1.60;99.90;;;;;;5113769;28;20288;-76
2023/02/28 04:33:30;;;;;;;16.00;10.43;;;-1.50;99.90;;;;;;5114039;28;20226;-77
2023/02/28 04:36:02;;;;;;;16.03;10.40;;;-1.60;99.90;;;;;;5113563;28;20205;-76
2023/02/28 04:38:29;;;;;;;15.50;10.53;;;-1.70;99.90;;;;;;5113890;28;20285;-77
2023/02/28 04:41:00;;;;;;;15.97;10.43;;;-1.70;99.90;;;;;;5113870;28;20230;-77
2023/02/28 04:43:27;;;;;;;15.63;10.83;;;-1.70;99.90;;;;;;5113529;28;20741;-76
2023/02/28 04:45:56;;;;;;;16.93;10.73;;;-1.80;99.90;;;;;;5113133;28;20756;-76
2023/02/28 04:48:24;;;;;;;16.40;10.73;;;-1.80;99.90;;;;;;5113486;28;20667;-76
2023/02/28 04:50:51;;;;;;;17.53;10.87;;;-1.90;99.90;;;;;;5113424;28;20204;-76
2023/02/28 04:53:18;;;;;;;18.87;10.60;;;-1.90;99.90;;;;;;5113254;28;20200;-76
2023/02/28 04:55:46;;;;;;;13.70;10.17;;;-1.90;99.90;;;;;;5113753;28;20282;-76
2023/02/28 04:58:14;;;;;;;15.73;10.50;;;-1.90;99.90;;;;;;5113151;28;20294;-76
2023/02/28 05:00:41;;;;;;;17.47;10.73;;;-1.90;99.90;;;;;;5112857;28;20230;-76
2023/02/28 05:03:08;;;;;;;15.33;10.53;;;-2.00;99.90;;;;;;5113308;28;20282;-76
2023/02/28 05:05:36;;;;;;;14.50;10.33;;;-2.00;99.90;;;;;;5112922;28;20197;-77
2023/02/28 05:08:05;;;;;;;26.17;11.10;;;-2.00;99.90;;;;;;5113552;28;20324;-77
2023/02/28 05:10:31;;;;;;;16.23;11.23;;;-2.00;99.90;;;;;;5113395;28;20233;-76
2023/02/28 05:12:59;;;;;;;16.70;11.20;;;-1.90;99.90;;;;;;5112964;28;20226;-77
2023/02/28 05:15:27;;;;;;;16.93;10.90;;;-2.00;99.90;;;;;;5112999;28;20219;-76
2023/02/28 05:17:54;;;;;;;19.17;11.93;;;-2.10;99.90;;;;;;5112927;28;20224;-77
2023/02/28 05:20:21;;;;;;;17.63;11.60;;;-2.10;99.90;;;;;;5112819;28;20650;-76
2023/02/28 05:22:48;;;;;;;18.23;11.13;;;-2.10;99.90;;;;;;5112838;28;20193;-76
2023/02/28 05:25:19;;;;;;;16.43;11.47;;;-2.00;99.90;;;;;;5113028;28;20217;-77
2023/02/28 05:27:46;;;;;;;18.27;11.73;;;-2.10;99.90;;;;;;5112705;28;20784;-76
2023/02/28 05:30:13;;;;;;;17.50;11.33;;;-2.00;99.90;;;;;;5112695;28;20297;-76
2023/02/28 05:32:42;;;;;;;16.40;11.17;;;-1.80;99.90;;;;;;5112626;28;20280;-77
2023/02/28 05:35:10;;;;;;;19.43;12.13;;;-1.90;99.90;;;;;;5113108;28;20201;-77
2023/02/28 05:37:38;;;;;;;19.90;12.67;;;-1.80;99.90;;;;;;5112397;28;20753;-76
2023/02/28 05:40:08;;;;;;;21.33;12.17;;;-1.80;99.90;;;;;;5112663;28;20285;-76
2023/02/28 05:42:35;;;;;;;18.93;12.53;;;-1.80;99.90;;;;;;5112451;28;20190;-76
2023/02/28 05:45:02;;;;;;;18.93;12.60;;;-1.90;99.90;;;;;;5112418;28;20782;-76
2023/02/28 05:47:29;;;;;;;21.43;12.93;;;-1.80;99.90;;;;;;5112282;28;20698;-77
2023/02/28 05:49:57;;;;;;;19.13;12.73;;;-2.10;99.90;;;;;;5112174;28;20280;-76
2023/02/28 05:52:24;;;;;;;19.43;13.10;;;-2.10;99.90;;;;;;5112140;28;20749;-77
2023/02/28 05:54:51;;;;;;;21.13;12.33;;;-2.20;99.90;;;;;;5111536;28;20709;-76
2023/02/28 05:57:18;;;;;;;21.90;12.90;;;-2.00;99.90;;;;;;5112421;28;20225;-76
2023/02/28 05:59:45;;;;;;;20.07;12.47;;;-2.00;99.90;;;;;;5111336;28;20217;-76
2023/02/28 06:02:14;;;;;;;19.30;13.17;;;-2.20;99.90;;;;;;5111289;28;20202;-75
2023/02/28 06:04:42;;;;;;;22.63;13.33;;;-2.10;99.90;;;;;;5111784;28;20222;-76
2023/02/28 06:07:10;;;;;;;21.40;12.93;;;-2.10;99.90;;;;;;5111882;28;20291;-77
2023/02/28 06:09:38;;;;;;;19.40;12.00;;;-2.00;99.90;;;;;;5111914;28;20193;-77
2023/02/28 06:12:09;;;;;;;21.17;13.13;;;-2.10;99.90;;;;;;5112077;28;20226;-77
2023/02/28 06:14:37;;;;;;;31.93;18.10;;;-2.10;99.90;;;;;;5112174;28;20198;-78
2023/02/28 06:17:06;;;;;;;42.63;24.03;;;-2.20;99.90;;;;;;5111272;28;20585;-77
2023/02/28 06:19:33;;;;;;;32.83;20.37;;;-2.10;99.90;;;;;;5112581;28;20291;-77
2023/02/28 06:22:00;;;;;;;47.47;26.47;;;-2.20;99.90;;;;;;5111528;28;20603;-78
2023/02/28 06:24:28;;;;;;;46.03;26.87;;;-2.10;99.90;;;;;;5111673;28;20218;-78
2023/02/28 06:26:56;;;;;;;22.77;14.53;;;-2.00;99.90;;;;;;5111527;28;20242;-76
2023/02/28 06:29:23;;;;;;;82.80;47.03;;;-2.00;99.90;;;;;;5110681;28;20254;-76
2023/02/28 06:31:50;;;;;;;27.70;17.10;;;-2.10;99.90;;;;;;5109867;28;20189;-76
2023/02/28 06:34:17;;;;;;;35.40;21.90;;;-2.00;99.90;;;;;;5110901;28;20289;-77
2023/02/28 06:36:44;;;;;;;33.33;20.30;;;-2.10;99.90;;;;;;5111545;28;20288;-77
2023/02/28 06:39:11;;;;;;;43.53;29.20;;;-2.10;99.90;;;;;;5104504;28;20293;-77
2023/02/28 06:41:39;;;;;;;43.97;29.83;;;-1.90;99.90;;;;;;5097825;28;20755;-77
2023/02/28 06:44:07;;;;;;;25.67;17.30;;;-2.10;99.90;;;;;;5103038;28;20236;-78
2023/02/28 06:46:33;;;;;;;40.90;28.70;;;-1.90;99.90;;;;;;5105780;28;20635;-79
2023/02/28 06:49:00;;;;;;;26.70;17.50;;;-2.00;99.90;;;;;;5111535;28;20194;-77
2023/02/28 06:51:27;;;;;;;52.53;31.13;;;-1.90;99.90;;;;;;5111880;28;20267;-79
2023/02/28 06:53:54;;;;;;;48.73;30.40;;;-1.90;99.90;;;;;;5111711;28;20249;-78
2023/02/28 06:56:21;;;;;;;44.87;27.87;;;-1.80;99.90;;;;;;5111250;28;20225;-80
2023/02/28 06:58:52;;;;;;;39.60;28.00;;;-1.70;99.90;;;;;;5111555;28;20190;-79
2023/02/28 07:01:19;;;;;;;44.73;33.73;;;-1.70;99.90;;;;;;5111769;28;20202;-78
2023/02/28 07:03:51;;;;;;;25.57;16.80;;;-1.60;99.90;;;;;;5111502;28;20265;-79
2023/02/28 07:06:19;;;;;;;21.50;15.90;;;-1.50;99.90;;;;;;5112668;28;20191;-78
2023/02/28 07:08:46;;;;;;;22.63;15.00;;;-1.40;99.90;;;;;;5115430;28;20316;-78
2023/02/28 07:11:13;;;;;;;20.53;13.33;;;-1.20;99.90;;;;;;5115456;28;20607;-79
2023/02/28 07:13:39;;;;;;;21.13;14.00;;;-1.00;99.90;;;;;;5115782;28;20287;-78
2023/02/28 07:16:13;;;;;;;22.80;13.83;;;-0.80;99.90;;;;;;5115166;28;20287;-79
2023/02/28 07:18:40;;;;;;;25.90;14.20;;;-0.70;99.90;;;;;;5115931;28;20197;-78
2023/02/28 07:21:10;;;;;;;20.67;14.13;;;-0.60;99.90;;;;;;5115807;28;20225;-79
2023/02/28 07:23:38;;;;;;;19.33;13.60;;;-0.40;99.90;;;;;;5115644;28;20249;-79
2023/02/28 07:26:06;;;;;;;22.20;13.70;;;-0.20;99.90;;;;;;5115518;28;20661;-79
2023/02/28 07:28:33;;;;;;;20.07;13.13;;;0.20;99.90;;;;;;5115501;28;20319;-78
2023/02/28 07:31:05;;;;;;;19.77;13.73;;;0.40;99.90;;;;;;5115280;28;20616;-78
2023/02/28 07:33:33;;;;;;;18.53;13.77;;;0.60;99.90;;;;;;5115435;28;20206;-80
2023/02/28 07:36:04;;;;;;;19.03;13.03;;;1.10;99.90;;;;;;5115276;28;20198;-79
2023/02/28 07:38:31;;;;;;;17.93;13.40;;;1.70;99.90;;;;;;5114924;28;20227;-79
2023/02/28 07:40:58;;;;;;;21.80;14.13;;;1.90;99.90;;;;;;5114923;28;20686;-79
2023/02/28 07:43:25;;;;;;;17.90;13.87;;;2.10;99.90;;;;;;5114734;28;20288;-79
2023/02/28 07:45:52;;;;;;;20.37;14.23;;;2.10;99.90;;;;;;5114501;28;20261;-78
2023/02/28 07:48:19;;;;;;;17.80;12.97;;;2.30;99.90;;;;;;5115126;28;20286;-79
2023/02/28 07:50:56;;;;;;;15.40;13.40;;;2.60;99.90;;;;;;5114826;28;20749;-80
2023/02/28 07:53:23;;;;;;;18.33;13.70;;;3.30;99.90;;;;;;5114808;28;20215;-78
2023/02/28 07:55:50;;;;;;;17.60;13.33;;;3.30;99.90;;;;;;5114772;28;20199;-80
2023/02/28 07:58:16;;;;;;;17.43;14.07;;;3.40;99.90;;;;;;5114860;28;20221;-81
2023/02/28 08:00:43;;;;;;;19.53;14.73;;;3.80;99.90;;;;;;5114560;28;20662;-80
2023/02/28 08:03:12;;;;;;;18.07;14.40;;;4.00;99.90;;;;;;5114866;28;20291;-80
2023/02/28 08:05:40;;;;;;;16.77;14.43;;;3.80;99.90;;;;;;5114700;28;20219;-80
2023/02/28 08:08:09;;;;;;;19.33;15.93;;;4.50;99.90;;;;;;5114286;28;20926;-79
2023/02/28 08:10:36;;;;;;;17.57;14.87;;;5.10;99.90;;;;;;5114655;28;20735;-80
2023/02/28 08:13:03;;;;;;;17.43;13.20;;;5.10;99.90;;;;;;5114374;28;20242;-79
2023/02/28 08:15:30;;;;;;;17.33;13.60;;;5.10;99.90;;;;;;5114688;28;20225;-78
2023/02/28 08:17:57;;;;;;;15.50;12.83;;;5.70;99.90;;;;;;5114343;28;20623;-80
2023/02/28 08:20:25;;;;;;;16.27;13.10;;;5.20;99.90;;;;;;5114333;28;20280;-80
2023/02/28 08:22:52;;;;;;;17.80;14.33;;;5.00;99.90;;;;;;5114415;28;20217;-80
2023/02/28 08:25:21;;;;;;;19.37;13.93;;;6.20;99.90;;;;;;5114250;28;20284;-81
2023/02/28 08:27:48;;;;;;;16.77;14.03;;;6.50;99.90;;;;;;5113921;28;20308;-81
2023/02/28 08:30:16;;;;;;;15.27;13.00;;;5.90;99.90;;;;;;5114304;28;20273;-80
2023/02/28 08:32:43;;;;;;;14.47;12.73;;;5.50;99.90;;;;;;5114353;28;20232;-80
2023/02/28 08:35:10;;;;;;;13.77;11.80;;;5.70;99.90;;;;;;5114314;28;20222;-81
2023/02/28 08:37:37;;;;;;;15.77;12.50;;;6.10;99.90;;;;;;5114123;28;20220;-80
2023/02/28 08:40:05;;;;;;;14.97;12.80;;;6.30;99.90;;;;;;5114257;28;20281;-80
2023/02/28 08:42:34;;;;;;;14.70;11.97;;;6.70;99.90;;;;;;5113522;28;20281;-80
2023/02/28 08:45:01;;;;;;;13.77;12.27;;;7.00;99.90;;;;;;5114189;28;20324;-82
2023/02/28 08:47:28;;;;;;;13.27;11.87;;;8.30;99.90;;;;;;5114037;28;20276;-80
2023/02/28 08:49:55;;;;;;;13.40;11.60;;;9.10;99.90;;;;;;5113800;28;20604;-80
2023/02/28 08:52:22;;;;;;;13.30;11.70;;;8.90;99.90;;;;;;5113853;28;20220;-81
2023/02/28 08:54:49;;;;;;;12.37;11.07;;;8.10;99.90;;;;;;5113831;28;20217;-81
2023/02/28 08:57:16;;;;;;;12.40;11.10;;;7.90;99.90;;;;;;5113598;28;20286;-81
2023/02/28 08:59:44;;;;;;;11.93;10.70;;;7.60;99.90;;;;;;5113868;28;20284;-80
2023/02/28 09:02:13;;;;;;;11.77;10.57;;;7.30;99.90;;;;;;5113662;28;20198;-81
2023/02/28 09:04:41;;;;;;;12.30;10.70;;;7.00;99.90;;;;;;5113563;28;20216;-81
2023/02/28 09:07:08;;;;;;;11.80;10.47;;;7.90;99.90;;;;;;5113227;28;20197;-81
2023/02/28 09:09:35;;;;;;;12.47;11.13;;;7.40;99.90;;;;;;5113753;28;20289;-81
2023/02/28 09:12:02;;;;;;;12.07;10.63;;;7.90;99.90;;;;;;5112985;28;20228;-81
2023/02/28 09:14:29;;;;;;;12.13;9.87;;;8.80;99.90;;;;;;5113713;28;20189;-82
2023/02/28 09:16:57;;;;;;;11.03;9.70;;;9.20;99.90;;;;;;5113306;28;20201;-81
2023/02/28 09:19:24;;;;;;;12.17;10.33;;;9.20;99.90;;;;;;5113050;28;20229;-81
2023/02/28 09:21:52;;;;;;;10.37;9.13;;;9.70;99.90;;;;;;5113373;28;20233;-81
2023/02/28 09:24:20;;;;;;;10.00;8.23;;;9.30;99.90;;;;;;5113725;28;20190;-81
2023/02/28 09:26:47;;;;;;;9.67;8.30;;;8.10;99.90;;;;;;5112903;28;20572;-81
2023/02/28 09:29:16;;;;;;;9.03;7.93;;;8.20;99.90;;;;;;5112096;28;20320;-81
2023/02/28 09:31:43;;;;;;;11.07;8.70;;;7.90;99.90;;;;;;5112870;28;20198;-81
2023/02/28 09:34:11;;;;;;;8.80;7.53;;;8.40;99.90;;;;;;5112969;28;20202;-80
2023/02/28 09:36:38;;;;;;;8.97;7.47;;;8.30;99.90;;;;;;5112946;28;20225;-81
2023/02/28 09:39:06;;;;;;;10.60;8.07;;;8.50;99.90;;;;;;5112937;28;20293;-81
2023/02/28 09:41:47;;;;;;;10.43;8.13;;;9.40;99.90;;;;;;5112692;28;20708;-80
2023/02/28 09:44:21;;;;;;;11.57;9.50;;;9.70;99.90;;;;;;5112685;28;20237;-81
2023/02/28 09:46:54;;;;;;;10.37;8.33;;;8.70;99.90;;;;;;5112774;28;20198;-81
2023/02/28 09:49:26;;;;;;;8.17;6.20;;;9.00;99.90;;;;;;5112541;28;20260;-80
2023/02/28 09:51:59;;;;;;;9.77;7.47;;;9.10;99.90;;;;;;5112870;28;20673;-80
2023/02/28 09:54:29;;;;;;;8.00;7.20;;;9.00;99.90;;;;;;5112525;28;20194;-81
2023/02/28 09:57:02;;;;;;;7.63;6.13;;;9.20;99.90;;;;;;5112437;28;20281;-79
2023/02/28 09:59:40;;;;;;;7.07;5.97;;;10.10;99.90;;;;;;5112475;28;20200;-81
2023/02/28 10:02:20;;;;;;;6.40;5.70;;;9.70;99.90;;;;;;5112462;28;20217;-80
2023/02/28 10:04:54;;;;;;;7.07;5.70;;;9.10;99.90;;;;;;5112009;28;20259;-81
2023/02/28 10:07:39;;;;;;;7.30;6.03;;;9.70;99.90;;;;;;5112208;28;20193;-80
2023/02/28 10:10:16;;;;;;;7.70;5.40;;;9.40;99.90;;;;;;5112250;28;20292;-81
2023/02/28 10:12:46;;;;;;;5.30;4.80;;;9.70;99.90;;;;;;5112242;28;20211;-81
2023/02/28 10:15:16;;;;;;;4.93;4.43;;;9.70;99.90;;;;;;5112248;28;20289;-80
2023/02/28 10:17:46;;;;;;;6.03;4.23;;;8.40;99.90;;;;;;5111874;28;20670;-80
2023/02/28 10:20:20;;;;;;;5.27;4.40;;;9.30;99.90;;;;;;5112032;28;20221;-81
2023/02/28 10:22:54;;;;;;;4.63;4.00;;;8.90;99.90;;;;;;5111774;28;20199;-82
2023/02/28 10:25:23;;;;;;;5.07;4.33;;;8.60;99.90;;;;;;5112285;28;20240;-81
2023/02/28 10:27:53;;;;;;;8.27;3.90;;;9.60;99.90;;;;;;5111971;28;20221;-81
2023/02/28 10:30:21;;;;;;;4.70;3.33;;;9.20;99.90;;;;;;5112153;28;20247;-81
2023/02/28 10:32:53;;;;;;;7.40;3.27;;;9.70;99.90;;;;;;5111900;28;20240;-80
2023/02/28 10:35:24;;;;;;;5.10;3.90;;;10.00;99.90;;;;;;5111801;28;20198;-80
2023/02/28 10:37:55;;;;;;;4.40;3.63;;;9.40;99.90;;;;;;5112102;28;20300;-80
2023/02/28 10:40:35;;;;;;;4.27;3.30;;;9.30;99.90;;;;;;5111972;28;20284;-81
2023/02/28 10:43:03;;;;;;;4.87;3.40;;;9.70;99.90;;;;;;5112117;28;20654;-81
2023/02/28 10:45:33;;;;;;;4.87;3.30;;;9.40;99.90;;;;;;5111523;28;20308;-81
2023/02/28 10:48:02;;;;;;;3.83;3.30;;;9.20;99.90;;;;;;5111666;28;20226;-82
2023/02/28 10:50:42;;;;;;;6.10;3.63;;;9.60;99.90;;;;;;5111611;28;20229;-81
2023/02/28 10:53:25;;;;;;;4.30;3.67;;;9.40;99.60;;;;;;5111250;28;20619;-82
2023/02/28 10:55:58;;;;;;;5.80;3.70;;;10.30;99.90;;;;;;5111487;28;20198;-81
2023/02/28 10:58:28;;;;;;;5.10;3.70;;;9.50;99.70;;;;;;5111937;28;20205;-81
2023/02/28 11:00:55;;;;;;;5.07;3.53;;;10.80;99.90;;;;;;5111939;28;20304;-82
2023/02/28 11:03:31;;;;;;;4.80;3.10;;;10.00;99.60;;;;;;5111582;28;20221;-81
2023/02/28 11:06:04;;;;;;;4.10;3.50;;;9.20;99.00;;;;;;5111684;28;20194;-81
2023/02/28 11:08:32;;;;;;;4.93;3.57;;;9.40;98.90;;;;;;5111263;28;20257;-81
2023/02/28 11:11:04;;;;;;;6.57;3.30;;;9.20;98.70;;;;;;5111771;28;20233;-81
2023/02/28 11:13:35;;;;;;;4.97;3.80;;;9.20;99.70;;;;;;5111546;28;20225;-82
2023/02/28 11:16:04;;;;;;;6.23;4.27;;;9.90;98.70;;;;;;5111744;28;20285;-81
2023/02/28 11:18:39;;;;;;;4.67;3.90;;;10.00;98.90;;;;;;5111702;28;20194;-81
2023/02/28 11:21:09;;;;;;;4.53;3.80;;;9.50;99.20;;;;;;5110982;28;20201;-81
2023/02/28 11:23:41;;;;;;;6.00;4.40;;;9.80;97.70;;;;;;5111471;28;20221;-81
2023/02/28 11:26:10;;;;;;;6.50;4.23;;;9.10;97.80;;;;;;5111905;28;20221;-81
2023/02/28 11:28:39;;;;;;;5.60;4.03;;;9.60;99.90;;;;;;5111720;28;20768;-81
2023/02/28 11:31:19;;;;;;;5.63;4.10;;;10.60;98.90;;;;;;5111419;28;20226;-81
2023/02/28 11:33:49;;;;;;;6.23;4.37;;;11.00;96.60;;;;;;5111403;28;20395;-81
2023/02/28 11:36:24;;;;;;;6.70;4.00;;;9.90;97.50;;;;;;5111116;28;20658;-81
2023/02/28 11:38:52;;;;;;;4.60;4.00;;;9.70;99.90;;;;;;5111192;28;20197;-81
2023/02/28 11:41:32;;;;;;;6.57;4.30;;;10.50;97.80;;;;;;5111412;28;20285;-82
2023/02/28 11:44:21;;;;;;;4.50;3.93;;;10.00;99.60;;;;;;5111282;28;20218;-81
2023/02/28 11:46:50;;;;;;;4.97;4.20;;;10.10;99.90;;;;;;5111291;28;20281;-81
2023/02/28 11:49:31;;;;;;;5.23;4.27;;;10.10;99.90;;;;;;5111611;28;20226;-82
2023/02/28 11:52:03;;;;;;;6.13;4.20;;;9.70;99.90;;;;;;5111147;28;20190;-82
2023/02/28 11:54:51;;;;;;;8.63;4.60;;;9.70;99.90;;;;;;5115184;28;20194;-82
2023/02/28 11:57:33;;;;;;;4.83;4.33;;;9.80;99.90;;;;;;5114732;28;20210;-81
2023/02/28 12:00:09;;;;;;;5.50;4.57;;;9.60;99.90;;;;;;5114680;28;20296;-81
2023/02/28 12:02:54;;;;;;;5.77;4.53;;;9.60;99.90;;;;;;5115148;28;20193;-82
2023/02/28 12:05:29;;;;;;;5.80;4.70;;;10.00;99.90;;;;;;5114721;28;20225;-81
2023/02/28 12:08:21;;;;;;;8.00;4.33;;;9.40;99.90;;;;;;5114686;28;20289;-81
2023/02/28 12:11:01;;;;;;;8.00;4.57;;;9.50;99.90;;;;;;5114691;28;20635;-81
2023/02/28 12:13:37;;;;;;;5.17;4.20;;;9.10;99.90;;;;;;5114303;28;20270;-80
2023/02/28 12:16:27;;;;;;;9.53;5.07;;;9.60;99.90;;;;;;5114260;28;20673;-81
2023/02/28 12:19:20;;;;;;;6.00;4.87;;;9.50;99.90;;;;;;5110781;28;20243;-81
2023/02/28 12:22:13;;;;;;;5.70;4.67;;;9.70;99.90;;;;;;5111672;28;20251;-81
2023/02/28 12:25:09;;;;;;;5.40;4.53;;;10.10;99.90;;;;;;5114171;28;20204;-81
2023/02/28 12:27:42;;;;;;;5.40;4.30;;;9.80;99.90;;;;;;5114048;28;20194;-81
2023/02/28 12:30:18;;;;;;;5.00;4.23;;;9.50;99.90;;;;;;5114293;28;20259;-81
2023/02/28 12:32:49;;;;;;;4.57;4.17;;;9.50;99.90;;;;;;5114530;28;20193;-81
2023/02/28 12:35:20;;;;;;;5.17;4.17;;;9.70;99.90;;;;;;5113822;28;20299;-81
2023/02/28 12:37:53;;;;;;;5.43;3.80;;;9.70;99.90;;;;;;5114366;28;20660;-81
2023/02/28 12:40:22;;;;;;;4.70;4.20;;;9.90;99.90;;;;;;5113900;28;20623;-79
2023/02/28 12:42:55;;;;;;;4.87;3.97;;;9.90;99.90;;;;;;5113907;28;20667;-81
2023/02/28 12:45:24;;;;;;;6.33;4.27;;;8.90;99.90;;;;;;5113754;28;20733;-80
2023/02/28 12:47:58;;;;;;;6.13;4.70;;;8.70;99.90;;;;;;5113749;28;20194;-81
2023/02/28 12:50:26;;;;;;;5.27;4.57;;;9.20;99.90;;;;;;5113988;28;20316;-82
2023/02/28 12:52:58;;;;;;;5.90;4.53;;;9.30;99.90;;;;;;5113960;28;20222;-82
2023/02/28 12:55:34;;;;;;;5.50;4.40;;;9.40;99.90;;;;;;5113548;28;20325;-82
2023/02/28 12:58:13;;;;;;;5.53;4.30;;;9.80;99.90;;;;;;5113602;28;20220;-81